Latest METARs, TAFs and NOTAMs for LIRQ


---------------------------------------------------------------------------
	(OBSERVATIONS)
LIRQ 181050Z VRB05KT 9999 SCT045 11/01 Q1019=
LIRQ 181020Z 09006G23KT 020V180 9999 FEW050 11/01 Q1019=
LIRQ 180950Z VRB06KT 9999 FEW045 10/01 Q1019=
LIRQ 180920Z 23006KT 180V290 9999 SCT045 10/01 Q1019=
LIRQ 180850Z 28006KT 220V010 9999 FEW045 10/01 Q1019=
LIRQ 180820Z VRB05KT 9999 FEW045 10/01 Q1019=
---------------------------------------------------------------------------
	(FC)
Sorry, FC For LIRQ Not Found
---------------------------------------------------------------------------
	(TERMINAL AREA FORECAST)
LIRQ 180500Z 1806/1906 04013KT 9999 SCT060 BECMG 1818/1820
    VRB05KT=
---------------------------------------------------------------------------
	(NOTAMS)


LIRQ B2184/17 REF AOC TYPE B NR RQ 3/3 NEW OBSTACLE ERECTED BUILDING
    PENETRATING TAKE-OFF CLIMB SURFACE RWY05 (IN CURVE) POINTS
    PSN COORD (WGS-84): - 434929.7N 0111314.4E - 434928.3N 0111316.0E
    - 434929.2N 0111317.1E - 434930.4N 0111315.5E - 434929.7N
    0111314.4E MAX ELEV AGL 16.6M/54.5FT MAX ELEV AMSL 75.1M/246.4FT
    ICAO SIGNAL UNPROVIDED. 03 MAY 08:27 2017 UNTIL PERM. CREATED:
    03 MAY 08:27 2017

LIRQ B4747/18 REF AIP AD2 LIRQ 2-1 AERODROME CHART ICAO 'MARKING
    AIDS' DELETE AIMING POINT MARKING RWY23. 29 AUG 03:00 2018
    UNTIL PERM. CREATED: 13 AUG 10:02 2018

LIRQ B4751/18 REF AIP AD 2 LIRQ 2-1 AERODROME CHART ICAO 'MARKING
    AIDS' IMPLEMENTED TDZ MARKINGS RWY05. 29 AUG 03:00 2018 UNTIL
    PERM. CREATED: 13 AUG 11:53 2018

LIRQ B4762/18 FOLLOW CHIMNEY PENETRATING INNER HORIZONTAL SURFACE
    COMPLETELY WITHDRAWN. - PSN COORD (WGS-84): 434726.4N 0111338.1E
    - ELEV 95.0M/311.7FT AMSL REF AIP AOC TYPE B NR RQ 3/3. 14
    AUG 12:17 2018 UNTIL PERM. CREATED: 14 AUG 12:17 2018

LIRQ B4829/18 REF AIP GEN 3.5-1 'METEOROLOGICAL SERVICES' PARAGRAPH
    3.1.12 'AIRPORT METEOROLOGICAL OBSERVATION AND FORECAST/AIRPORT
    AND WIND SHEAR WARNING - ENAV SPA' REFERRING TO 'FIRENZE/PERETOLA
    - LIRQ' COLUMN 7 'OBSERVATION SITES' CHG 'ANEMOMETERS' TO
    READ 1) THR RWY05 (MAIN) 2) THR RWY23 (BACKUP) OTHER DATA
    UNCHANGED CHG 'CEILOMETERS' TO READ 1) THR RWY05 REF AIP
    AD 2 LIRQ 1-6 ITEM 15 'OTHER LIGHTING, SECONDARY POWER SUPPLY'
    BOX 2 'LDI LOCATION AND LIGHTS /ANEMOMETER LOCATION AND LIGHTS'
    ANEMOMETERS CHG TO READ: 1) 215 M AFTER THR RWY05, 228 M
    LEFT SIDE RCL, LIGHTED 2) 37 M AFTER THR RWY23, 220 M RIGHT
    SIDE RCL, LIGHTED. 20 AUG 10:45 2018 UNTIL PERM. CREATED:
    20 AUG 10:45 2018

LIRQ B5334/18 FIRENZE TWR WILL PROVIDE, ON PILOT'S SPECIFIC REQUEST
    AND ON TRIAL BASIS, 'TAIL' AND 'CROSS' COMPONENTS OF THE
    SURFACE WIND, AS INDICATED ON LOCAL ATS DISPLAYS. 'TAIL'
    AND 'CROSS' COMPONENTS ARE RISPECTIVELY DIRECTED: - ALONG
    THE RWY CENTRE LINE, FOR THE TAIL WIND - PERPENDICULARLY
    TO THE RWY CENTRE LINE, FOR THE CROSS WIND TAIL COMPONENT
    DIRECTION CORRESPONDS TO THE DIRECTION OF RWY UTILIZATION.
    CROSS/TAIL COMPONENTS: - ARE OBTAINED FROM THE 2 MINUTES
    AVERAGE SURFACE WIND, MEASURED AS IN AIP GEN 3.5.3, PARAGRAPH
    3.1.1, POINT 'A', NOT TAKING GUSTS INTO ACCOUNT - ARE NOT
    AVAILABLE WHEN THE 2 MINUTES AVERAGE SURFACE WIND IS REPORTED
    'VRB' OR 'CALM' PILOT'S PHRASEOLOGY FOR TAIL/CROSS WIND COMPONENTS
    REQUEST IS: 'FIRENZE TWR, (AIRCRAFT IDENTIFICATION) REQUEST
    TAIL/CROSS WIND' TWR PHRASEOLOGY TO ANSWER PILOT'S REQUEST
    IS: '(AIRCRAFT IDENTIFICATION) WIND (DIRECTION) DEGREES (SPEED)
    KNOTS, TAIL/CROSS WIND (SPEED) KNOTS'. 01 OCT 00:00 2018
    UNTIL 29 DEC 23:59 2018 ESTIMATED. CREATED: 13 SEP 16:52
    2018

LIRQ B5515/18 EDGE LIGHTS ON APRON 100, 200 AND 300 UNSERVICEABLE
    DUE TO WIP REF AIP AD 2 LIRQ 2-5. 23 SEP 15:56 2018 UNTIL
    20 DEC 22:59 2018 ESTIMATED. CREATED: 23 SEP 15:56 2018

LIRQ B6004/18 ACFT STANDS 201, 203 AND 206 MAX ACFT ALLOWED TYPE
    GLEX/RJ85. REF AIP AD 2 LIRQ 2-7. 14 OCT 06:33 2018 UNTIL
    11 JAN 22:59 2019 ESTIMATED. CREATED: 14 OCT 06:33 2018

LIRQ B6244/18 LDG OPS FOR RWY23 AVBL AS FLW: -IFR TFC NOT ALLOWED
    -VFR TFC ALLOWED WITH HEL OR LOCAL AEROCLUB ACFT ONLY REF
    AIP AD 2 LIRQ 2-1 AND 1-12. DAILY SR-SS, 25 OCT 08:06 2018
    UNTIL 22 JAN 22:59 2019 ESTIMATED. CREATED: 25 OCT 08:06
    2018

LIRQ B6279/18 CIRCLING RWY 23 TEMPORARILY NOT ALLOWED FOR FLW
    INSTRUMENT APPROACH PROCEDURES: - ILS Z RWY 05 CAT A/B/C
    - ILS Y RWY 05 CAT A/B/C - RNAV (GNSS) Z RWY 05 CAT A/B/C
    - RNAV (GNSS) Y RWY 05 CAT A/B/C - VOR RWY 05 CAT A/B/C -
    LOC Z RWY 05 CAT A/B/C - LOC Y RWY 05 CAT A/B/C REF AIP AD
    2 LIRQ 5. 26 OCT 10:09 2018 UNTIL 23 JAN 23:59 2019 ESTIMATED.
    CREATED: 26 OCT 10:09 2018

LIRQ B6362/18 REF AIP AD 2 LIRQ 1-5 ITEM 14 'APPROACH AND RUNWAY
    LIGHTING' RWY 05 BOX 12 'REMARKS' CHANGE AS FLW: SIMPLE TDZ
    LIGHTS FOR RWY 05 ARE AVAILABLE: TWO PAIRS OF WHITE INSET
    HI-LIGHTS ON RUNWAY AT 472,8 M FROM LANDING THR05. 30 OCT
    04:08 2018 UNTIL PERM. CREATED: 30 OCT 04:09 2018

LIRQ B6393/18 INSTRUMENT APPROACH PROCEDURE. FLW RESTRICTIONS
    APPLY DUE TO ACT ANNOUNCED BY NOTAM W2933/18: 1. A) ILS Z
    RWY 05 M.A. MNM CLIMB GRADIENT 2.5PER CENT: - MODIFY OCA(OCH)
    CAT A TO 990(867) INSTEAD OF 820(697) - MODIFY OCA(OCH) CAT
    B TO 1002(879) INSTEAD OF 832(709) - MODIFY OCA(OCH) CAT
    C TO 1010(887) INSTEAD OF 840(717) B) ILS Z RWY 05 M.A. MNM
    CLIMB GRADIENT 3.5PER CENT: - MODIFY OCA(OCH) CAT A TO 970(847)
    INSTEAD OF 610(487) - MODIFY OCA(OCH) CAT B TO 982(859) INSTEAD
    OF 622(499) - MODIFY OCA(OCH) CAT C TO 990(867) INSTEAD OF
    630(507) 2. ILS Y RWY 05: - MODIFY OCA(OCH) CAT A TO 970(847)
    INSTEAD OF 600(477) - MODIFY OCA(OCH) CAT B TO 982(859) INSTEAD
    OF 612(489) - MODIFY OCA(OCH) CAT C TO 990(867) INSTEAD OF
    620(497) 3. RNAV (GNSS) Y RWY 05: END PART 1 OF 2. DAILY
    SR-SS, 05 NOV 00:00 2018 UNTIL 02 FEB 23:59 2019. CREATED:
    31 OCT 12:08 2018

LIRQ B6393/18 - MODIFY OCA(OCH) LPV CAT A TO 1000(877) INSTEAD
    OF 730(607) - MODIFY OCA(OCH) LPV CAT B TO 1012(889) INSTEAD
    OF 742(619) - MODIFY OCA(OCH) LPV CAT C TO 1020(897) INSTEAD
    OF 750(627) 4. LOC Y RWY 05 M.A. MNM CLIMB GRADIENT 3.7DEG:
    MODIFY OCA(OCH) CAT A-B-C TO 820(697) INSTEAD OF 760(637)
    5. CIRCLING SUSPENDED REF AIP AD 2 LIRQ 5) END PART 2 OF
    2. DAILY SR-SS, 05 NOV 00:00 2018 UNTIL 02 FEB 23:59 2019.
    CREATED: 31 OCT 12:08 2018

LIRQ B6397/18 AERODROME BEACON UNSERVICEABLE REF AIP AD 2 LIRQ
    1-6. 31 OCT 14:03 2018 UNTIL 31 DEC 23:59 2018 ESTIMATED.
    CREATED: 31 OCT 14:04 2018

LIRQ B6478/18 RUNWAY THRESHOLD INDENTIFICATION LIGHTS (RTIL)
    RWY05 UNSERVICEABLE REF AIP AD 2 LIRQ 1-6. 06 NOV 09:58 2018
    UNTIL 07 DEC 22:59 2018 ESTIMATED. CREATED: 06 NOV 09:58
    2018

LIRQ B6516/18 REF AOC TYPE B NR RQ 3/3 NEW OBSTACLE CRANE PENETRATING
    INNER HORIZONTAL SURFACE PSN COORD (WGS-84): 434822.4N 0111449.2E
    ELEV AGL 38.6M/126.6FT ELEV AMSL 102.5M/336.3FT ROTATING
    JIB 54M ICAO SIGNAL PROVIDED. 19 NOV 00:00 2018 UNTIL PERM.
    CREATED: 07 NOV 11:00 2018

LIRQ B6564/18 AIP SUP S10/17 IN FORCE FROM 09 NOV 2017 WITH END
    OF VALIDITY POSTPONED TO 30 JAN 2019 HR 2359. FIRENZE/PERETOLA
    AIRPORT: ACTIVATION ON TRIAL BASIS OF NOISE ABATEMENT INITIAL
    CLIMB PROCEDURE RWY23 MODIFICATION, FOR ACFT CAT A/B/C. 08
    NOV 15:16 2018 UNTIL 30 JAN 23:59 2019. CREATED: 08 NOV 15:16
    2018

LIRQ B6740/18 ILS RWY05 ON TEST DUE TO FLTCK, DO NOT USE FOR
    OPERATIONAL PURPOSES REF AIP AD 2 LIRQ 1-7. 1000-1200 AND
    1330-1530, 21 NOV 10:00 2018 UNTIL 21 NOV 15:30 2018. CREATED:
    16 NOV 09:01 2018

---------------------------------------------------------------------------